createdAt,value
2022-10-08T00:02:17.541Z,77.30
2022-10-08T00:05:19.338Z,36.20
2022-10-08T00:08:21.471Z,71.60
2022-10-08T00:11:31.789Z,141.00
2022-10-08T00:14:33.903Z,117.40
2022-10-08T00:17:35.659Z,52.80
2022-10-08T00:20:37.658Z,36.20
2022-10-08T00:23:39.332Z,79.30
2022-10-08T00:26:44.072Z,130.80
2022-10-08T00:29:47.193Z,60.30
2022-10-08T00:32:49.609Z,61.10
2022-10-08T00:35:51.874Z,57.40
2022-10-08T00:38:57.817Z,29.70
2022-10-08T00:42:00.335Z,42.00
2022-10-08T00:45:02.187Z,50.00
2022-10-08T00:48:04.368Z,51.10
2022-10-08T00:51:06.229Z,23.90
2022-10-08T00:54:08.206Z,23.00
2022-10-08T00:57:10.151Z,25.10
2022-10-08T01:00:20.647Z,25.20
2022-10-08T01:03:23.162Z,24.00
2022-10-08T01:06:29.986Z,25.10
2022-10-08T01:09:49.337Z,27.10
2022-10-08T01:13:16.930Z,24.80
2022-10-08T01:16:27.585Z,56.40
2022-10-08T01:19:48.984Z,59.90
2022-10-08T01:23:15.354Z,51.40
2022-10-08T01:26:46.063Z,44.50
2022-10-08T01:29:49.202Z,39.40
2022-10-08T01:32:57.686Z,31.20
2022-10-08T01:36:01.268Z,66.60
2022-10-08T01:39:07.928Z,77.00
2022-10-08T01:42:10.539Z,51.80
2022-10-08T01:45:19.134Z,37.20
2022-10-08T01:48:23.939Z,32.30
2022-10-08T01:51:32.574Z,42.90
2022-10-08T01:54:35.473Z,37.90
2022-10-08T01:57:38.480Z,32.80
2022-10-08T02:00:42.256Z,44.70
2022-10-08T02:04:04.053Z,74.10
2022-10-08T02:07:15.046Z,35.10
2022-10-08T02:10:19.968Z,38.60
2022-10-08T02:13:21.850Z,44.70
2022-10-08T02:16:29.229Z,49.00
2022-10-08T02:19:57.371Z,34.10
2022-10-08T02:23:14.343Z,50.40
2022-10-08T02:26:27.113Z,52.20
2022-10-08T02:29:36.045Z,74.50
2022-10-08T02:32:55.717Z,82.50
2022-10-08T02:35:59.866Z,55.50
2022-10-08T02:39:06.615Z,61.00
2022-10-08T02:42:11.569Z,55.00
2022-10-08T02:45:24.231Z,52.20
2022-10-08T02:48:32.112Z,46.00
2022-10-08T02:51:39.770Z,44.30
2022-10-08T02:54:43.506Z,38.90
2022-10-08T02:57:52.068Z,41.40
2022-10-08T03:00:59.717Z,41.60
2022-10-08T03:04:26.607Z,40.50
2022-10-08T03:07:32.220Z,37.40
2022-10-08T03:10:36.222Z,42.20
2022-10-08T03:13:41.037Z,37.20
2022-10-08T03:16:45.208Z,45.00
2022-10-08T03:19:47.222Z,43.60
2022-10-08T03:22:49.353Z,42.00
2022-10-08T03:25:51.422Z,42.30
2022-10-08T03:28:53.953Z,45.90
2022-10-08T03:31:55.743Z,47.90
2022-10-08T03:34:57.724Z,54.80
2022-10-08T03:37:59.632Z,49.00
2022-10-08T03:41:01.837Z,47.20
2022-10-08T03:44:03.780Z,40.20
2022-10-08T03:47:05.614Z,57.00
2022-10-08T03:50:07.865Z,39.10
2022-10-08T03:53:09.886Z,43.60
2022-10-08T03:56:14.891Z,34.90
2022-10-08T03:59:16.626Z,46.50
2022-10-08T04:02:18.455Z,42.40
2022-10-08T04:05:20.611Z,42.40
2022-10-08T04:08:22.895Z,41.90
2022-10-08T04:11:24.611Z,31.70
2022-10-08T04:14:26.410Z,34.30
2022-10-08T04:17:28.201Z,34.80
2022-10-08T04:20:29.971Z,31.50
2022-10-08T04:23:33.663Z,32.80
2022-10-08T04:26:35.582Z,37.20
2022-10-08T04:29:37.283Z,34.40
2022-10-08T04:35:40.673Z,35.00
2022-10-08T04:38:43.779Z,40.90
2022-10-08T04:41:45.698Z,37.60
2022-10-08T04:44:47.596Z,44.50
2022-10-08T04:47:49.354Z,38.60
2022-10-08T05:00:18.522Z,39.70
2022-10-08T05:03:21.004Z,54.80
2022-10-08T05:09:25.654Z,40.80
2022-10-08T05:12:27.361Z,41.10
2022-10-08T05:18:32.757Z,71.00
2022-10-08T05:21:34.439Z,76.30
2022-10-08T05:24:36.675Z,68.00
2022-10-08T05:27:38.398Z,62.30
2022-10-08T05:30:40.097Z,62.20
2022-10-08T05:36:43.500Z,66.60
2022-10-08T05:39:45.837Z,60.80
2022-10-08T05:42:47.864Z,74.10
2022-10-08T05:45:51.530Z,105.20
2022-10-08T05:48:54.667Z,113.60
2022-10-08T05:51:56.409Z,104.60
2022-10-08T05:54:58.185Z,109.40
2022-10-08T05:58:00.085Z,95.00
2022-10-08T06:01:04.479Z,76.70
2022-10-08T06:04:08.733Z,79.20
2022-10-08T06:07:10.925Z,82.20
2022-10-08T06:10:13.210Z,67.50
2022-10-08T06:13:15.014Z,60.00
2022-10-08T06:16:16.871Z,54.90
2022-10-08T06:19:18.677Z,46.60
2022-10-08T06:22:20.677Z,40.50
2022-10-08T06:25:22.447Z,38.00
2022-10-08T06:28:24.341Z,37.70
2022-10-08T06:31:26.183Z,32.60
2022-10-08T06:34:27.992Z,32.20
2022-10-08T06:37:29.694Z,33.90
2022-10-08T06:40:38.994Z,30.00
2022-10-08T06:43:40.989Z,29.10
2022-10-08T06:46:43.395Z,31.70
2022-10-08T06:49:45.358Z,31.40
2022-10-08T06:52:47.475Z,29.70
2022-10-08T06:55:49.465Z,30.00
2022-10-08T06:58:52.004Z,34.10
2022-10-08T07:01:54.004Z,34.00
2022-10-08T07:04:55.733Z,33.10
2022-10-08T07:07:57.422Z,32.30
2022-10-08T07:11:12.234Z,34.20
2022-10-08T07:14:14.055Z,33.00
2022-10-08T07:17:16.017Z,42.40
2022-10-08T07:20:18.429Z,48.70
2022-10-08T07:23:20.184Z,37.50
2022-10-08T07:26:24.746Z,33.90
2022-10-08T07:29:26.669Z,33.60
2022-10-08T07:32:28.661Z,37.60
2022-10-08T07:35:30.508Z,41.00
2022-10-08T07:38:32.287Z,45.90
2022-10-08T07:41:35.258Z,38.50
2022-10-08T07:44:37.419Z,40.10
2022-10-08T07:47:39.151Z,37.70
2022-10-08T07:50:40.906Z,41.00
2022-10-08T07:53:43.733Z,41.00
2022-10-08T07:56:46.068Z,39.50
2022-10-08T07:59:47.831Z,42.50
2022-10-08T08:02:49.673Z,40.90
2022-10-08T08:05:54.823Z,37.30
2022-10-08T08:08:56.973Z,40.90
2022-10-08T08:11:58.667Z,35.00
2022-10-08T08:15:00.390Z,37.30
2022-10-08T08:18:02.819Z,37.60
2022-10-08T08:21:07.793Z,36.00
2022-10-08T08:24:13.751Z,36.60
2022-10-08T08:27:15.643Z,34.20
2022-10-08T08:30:17.480Z,33.20
2022-10-08T08:33:19.168Z,31.50
2022-10-08T08:36:25.107Z,31.70
2022-10-08T08:39:28.167Z,28.30
2022-10-08T08:42:49.129Z,31.20
2022-10-08T08:45:51.303Z,28.40
2022-10-08T08:48:55.796Z,30.60
2022-10-08T08:51:59.257Z,53.80
2022-10-08T08:55:01.820Z,30.30
2022-10-08T08:58:12.475Z,30.60
2022-10-08T09:01:42.549Z,26.40
2022-10-08T09:04:48.041Z,33.20
2022-10-08T09:07:54.393Z,26.30
2022-10-08T09:11:04.099Z,28.10
2022-10-08T09:14:37.990Z,26.00
2022-10-08T09:17:41.539Z,22.80
2022-10-08T09:20:44.558Z,29.20
2022-10-08T09:23:46.910Z,24.60
2022-10-08T09:26:48.859Z,25.60
2022-10-08T09:29:50.692Z,20.90
2022-10-08T09:32:53.631Z,21.50
2022-10-08T09:35:55.686Z,22.70
2022-10-08T09:38:58.843Z,20.50
2022-10-08T09:42:20.197Z,18.60
2022-10-08T09:45:42.950Z,19.10
2022-10-08T09:48:46.019Z,21.00
2022-10-08T09:51:49.406Z,21.10
2022-10-08T09:55:02.744Z,22.00
2022-10-08T09:58:05.560Z,20.00
2022-10-08T10:01:14.417Z,21.30
2022-10-08T10:04:37.466Z,20.80
2022-10-08T10:07:44.913Z,20.70
2022-10-08T10:10:46.947Z,18.50
2022-10-08T10:13:50.178Z,19.50
2022-10-08T10:16:56.749Z,20.90
2022-10-08T10:20:20.442Z,20.10
2022-10-08T10:23:27.879Z,18.40
2022-10-08T10:26:34.020Z,19.00
2022-10-08T10:30:07.664Z,17.50
2022-10-08T10:33:15.849Z,19.60
2022-10-08T10:36:18.652Z,19.10
2022-10-08T10:39:38.822Z,18.90
2022-10-08T10:43:06.749Z,19.70
2022-10-08T10:46:32.740Z,16.30
2022-10-08T10:49:38.465Z,17.40
2022-10-08T10:53:23.933Z,16.50
2022-10-08T10:56:29.179Z,16.00
2022-10-08T10:59:49.067Z,15.50
2022-10-08T11:03:08.264Z,16.80
2022-10-08T11:06:24.127Z,15.10
2022-10-08T11:09:36.451Z,15.20
2022-10-08T11:12:56.881Z,14.20
2022-10-08T11:16:06.601Z,17.50
2022-10-08T11:19:33.407Z,16.20
2022-10-08T11:23:03.451Z,15.30
2022-10-08T11:26:25.674Z,16.60
2022-10-08T11:30:05.218Z,13.20
2022-10-08T11:33:12.686Z,15.40
2022-10-08T11:36:34.883Z,17.10
2022-10-08T11:39:55.855Z,17.30
2022-10-08T11:43:08.053Z,16.90
2022-10-08T11:46:31.531Z,18.80
2022-10-08T11:49:33.454Z,17.70
2022-10-08T11:52:35.745Z,17.50
2022-10-08T11:55:38.084Z,18.60
2022-10-08T11:58:39.791Z,19.50
2022-10-08T12:01:56.795Z,20.10
2022-10-08T12:05:23.660Z,20.40
2022-10-08T12:08:58.163Z,20.30
2022-10-08T12:12:12.883Z,17.70
2022-10-08T12:15:23.998Z,22.60
2022-10-08T12:18:26.454Z,19.40
2022-10-08T12:21:28.486Z,18.20
2022-10-08T12:24:39.549Z,17.50
2022-10-08T12:27:41.360Z,16.40
2022-10-08T12:30:55.031Z,16.40
2022-10-08T12:34:02.710Z,16.20
2022-10-08T12:37:20.188Z,16.00
2022-10-08T12:40:58.446Z,15.00
2022-10-08T12:44:06.660Z,14.50
2022-10-08T12:47:30.056Z,20.80
2022-10-08T12:50:49.692Z,19.10
2022-10-08T12:53:52.211Z,19.70
2022-10-08T12:56:53.984Z,16.10
2022-10-08T13:00:00.941Z,15.30
2022-10-08T13:03:11.670Z,17.50
2022-10-08T13:06:29.325Z,15.00
2022-10-08T13:09:36.386Z,18.30
2022-10-08T13:12:39.592Z,23.50
2022-10-08T13:15:42.163Z,20.50
2022-10-08T13:18:58.674Z,17.40
2022-10-08T13:22:08.816Z,20.20
2022-10-08T13:25:39.167Z,16.30
2022-10-08T13:28:59.329Z,18.30
2022-10-08T13:32:05.239Z,17.50
2022-10-08T13:35:20.806Z,20.20
2022-10-08T13:38:29.538Z,18.50
2022-10-08T13:41:31.256Z,21.80
2022-10-08T13:44:33.788Z,18.00
2022-10-08T13:47:35.519Z,19.70
2022-10-08T13:50:44.562Z,16.50
2022-10-08T13:53:46.390Z,20.20
2022-10-08T13:56:49.045Z,18.40
2022-10-08T13:59:51.240Z,29.20
2022-10-08T14:02:53.457Z,18.20
2022-10-08T14:05:55.579Z,21.80
2022-10-08T14:08:58.214Z,20.80
2022-10-08T14:12:02.023Z,20.10
2022-10-08T14:15:04.163Z,20.30
2022-10-08T14:18:06.377Z,22.80
2022-10-08T14:21:10.538Z,20.90
2022-10-08T14:24:12.535Z,17.30
2022-10-08T14:27:14.357Z,18.90
2022-10-08T14:30:16.373Z,18.30
2022-10-08T14:33:18.055Z,19.30
2022-10-08T14:36:22.190Z,21.60
2022-10-08T14:39:25.202Z,16.80
2022-10-08T14:42:26.880Z,16.80
2022-10-08T14:45:28.675Z,20.30
2022-10-08T14:48:30.491Z,18.20
2022-10-08T14:51:38.451Z,22.80
2022-10-08T14:54:40.215Z,20.30
2022-10-08T14:57:42.111Z,21.20
2022-10-08T15:00:44.015Z,19.70
2022-10-08T15:03:46.060Z,21.20
2022-10-08T15:06:48.301Z,21.50
2022-10-08T15:09:50.016Z,20.20
2022-10-08T15:12:51.809Z,21.10
2022-10-08T15:15:53.643Z,22.10
2022-10-08T15:18:55.347Z,25.20
2022-10-08T15:21:57.226Z,22.60
2022-10-08T15:24:59.011Z,21.50
2022-10-08T15:28:01.015Z,23.40
2022-10-08T15:31:09.146Z,24.40
2022-10-08T15:34:17.477Z,24.70
2022-10-08T15:37:19.315Z,22.50
2022-10-08T15:40:21.119Z,24.30
2022-10-08T15:43:32.278Z,24.40
2022-10-08T15:46:34.037Z,24.50
2022-10-08T15:49:37.109Z,28.40
2022-10-08T15:52:42.925Z,26.00
2022-10-08T15:55:57.521Z,29.00
2022-10-08T15:59:00.190Z,38.50
2022-10-08T16:02:02.571Z,36.00
2022-10-08T16:05:04.839Z,38.30
2022-10-08T16:08:09.454Z,34.70
2022-10-08T16:11:20.324Z,33.90
2022-10-08T16:14:24.476Z,37.70
2022-10-08T16:17:27.164Z,36.50
2022-10-08T16:20:29.004Z,36.40
2022-10-08T16:23:35.804Z,40.30
2022-10-08T16:26:40.074Z,32.90
2022-10-08T16:29:41.948Z,40.00
2022-10-08T16:32:43.598Z,33.40
2022-10-08T16:35:45.335Z,50.90
2022-10-08T16:38:47.281Z,42.40
2022-10-08T16:41:49.389Z,50.30
2022-10-08T16:44:51.146Z,46.70
2022-10-08T16:47:52.914Z,40.60
2022-10-08T16:50:55.015Z,42.20
2022-10-08T16:53:59.242Z,42.10
2022-10-08T16:57:01.816Z,38.40
2022-10-08T17:00:04.675Z,34.10
2022-10-08T17:03:08.086Z,41.40
2022-10-08T17:06:10.852Z,39.40
2022-10-08T17:09:13.205Z,44.70
2022-10-08T17:12:17.473Z,35.60
2022-10-08T17:15:22.837Z,37.40
2022-10-08T17:18:28.886Z,35.50
2022-10-08T17:21:32.298Z,42.50
2022-10-08T17:24:39.030Z,43.70
2022-10-08T17:27:43.974Z,37.00
2022-10-08T17:30:45.670Z,37.10
2022-10-08T17:33:47.565Z,32.30
2022-10-08T17:36:49.390Z,34.20
2022-10-08T17:39:51.215Z,34.30
2022-10-08T17:42:53.523Z,41.70
2022-10-08T17:45:55.337Z,44.80
2022-10-08T17:48:57.806Z,40.40
2022-10-08T17:51:59.545Z,42.70
2022-10-08T17:55:01.418Z,43.60
2022-10-08T17:58:03.226Z,47.50
2022-10-08T18:01:09.119Z,43.10
2022-10-08T18:04:12.974Z,43.90
2022-10-08T18:07:15.010Z,45.90
2022-10-08T18:10:16.755Z,44.50
2022-10-08T18:13:18.971Z,42.00
2022-10-08T18:16:21.887Z,43.40
2022-10-08T18:19:24.007Z,42.70
2022-10-08T18:22:26.124Z,42.20
2022-10-08T18:25:27.971Z,44.40
2022-10-08T18:28:29.857Z,50.50
2022-10-08T18:31:32.885Z,49.30
2022-10-08T18:34:34.708Z,53.00
2022-10-08T18:37:36.421Z,58.10
2022-10-08T18:40:38.320Z,56.90
2022-10-08T18:43:40.359Z,46.60
2022-10-08T18:46:45.269Z,45.10
2022-10-08T18:49:47.168Z,52.60
2022-10-08T18:52:49.400Z,43.60
2022-10-08T18:55:51.874Z,46.10
2022-10-08T18:58:53.847Z,44.40
2022-10-08T19:01:59.084Z,45.60
2022-10-08T19:05:01.340Z,49.90
2022-10-08T19:08:04.426Z,44.10
2022-10-08T19:11:14.980Z,48.90
2022-10-08T19:14:18.821Z,49.80
2022-10-08T19:17:20.747Z,56.90
2022-10-08T19:20:22.493Z,47.30
2022-10-08T19:23:24.413Z,50.20
2022-10-08T19:26:28.258Z,49.00
2022-10-08T19:29:33.475Z,52.20
2022-10-08T19:32:35.281Z,51.90
2022-10-08T19:35:37.023Z,47.10
2022-10-08T19:38:38.803Z,50.80
2022-10-08T19:41:41.349Z,49.70
2022-10-08T19:44:43.183Z,53.40
2022-10-08T19:47:44.955Z,53.00
2022-10-08T19:50:46.726Z,55.30
2022-10-08T19:53:49.141Z,59.70
2022-10-08T19:56:50.998Z,70.30
2022-10-08T19:59:52.757Z,67.20
2022-10-08T20:02:54.478Z,71.70
2022-10-08T20:05:56.752Z,82.20
2022-10-08T20:09:01.889Z,68.20
2022-10-08T20:12:03.759Z,68.90
2022-10-08T20:15:08.304Z,64.00
2022-10-08T20:18:11.440Z,64.80
2022-10-08T20:21:13.438Z,59.60
2022-10-08T20:24:16.413Z,66.00
2022-10-08T20:27:18.315Z,61.60
2022-10-08T20:30:20.110Z,60.00
2022-10-08T20:33:21.833Z,64.30
2022-10-08T20:36:24.685Z,67.20
2022-10-08T20:39:26.451Z,67.20
2022-10-08T20:42:29.092Z,63.70
2022-10-08T20:45:30.962Z,60.50
2022-10-08T20:48:34.275Z,61.00
2022-10-08T20:51:38.986Z,70.40
2022-10-08T20:54:40.742Z,92.60
2022-10-08T20:57:42.584Z,62.10
2022-10-08T21:00:47.883Z,60.80
2022-10-08T21:03:51.184Z,63.40
2022-10-08T21:06:53.338Z,63.00
2022-10-08T21:09:55.301Z,66.30
2022-10-08T21:12:57.150Z,68.70
2022-10-08T21:16:10.421Z,69.30
2022-10-08T21:19:15.074Z,65.70
2022-10-08T21:22:17.040Z,67.30
2022-10-08T21:25:18.893Z,68.00
2022-10-08T21:28:20.984Z,70.30
2022-10-08T21:31:23.328Z,67.10
2022-10-08T21:34:25.579Z,69.30
2022-10-08T21:37:27.298Z,68.10
2022-10-08T21:40:29.130Z,66.90
2022-10-08T21:43:31.395Z,63.70
2022-10-08T21:46:35.780Z,66.80
2022-10-08T21:49:37.554Z,68.00
2022-10-08T21:52:39.490Z,66.50
2022-10-08T21:55:41.160Z,67.50
2022-10-08T21:58:48.104Z,64.60
2022-10-08T22:01:51.666Z,74.60
2022-10-08T22:04:53.637Z,68.60
2022-10-08T22:07:55.453Z,70.10
2022-10-08T22:10:57.576Z,70.20
2022-10-08T22:13:59.397Z,65.50
2022-10-08T22:17:01.209Z,66.30
2022-10-08T22:20:03.595Z,67.60
2022-10-08T22:23:05.471Z,68.60
2022-10-08T22:26:10.560Z,72.20
2022-10-08T22:29:12.526Z,72.30
2022-10-08T22:32:14.365Z,73.20
2022-10-08T22:35:16.091Z,77.40
2022-10-08T22:38:17.974Z,70.10
2022-10-08T22:41:33.406Z,81.00
2022-10-08T22:44:35.181Z,72.80
2022-10-08T22:47:36.876Z,75.10
2022-10-08T22:50:39.386Z,77.20
2022-10-08T22:53:41.971Z,72.10
2022-10-08T22:56:43.722Z,73.80
2022-10-08T22:59:45.752Z,71.30
2022-10-08T23:02:47.791Z,73.30
2022-10-08T23:06:27.611Z,72.90
2022-10-08T23:09:29.735Z,79.20
2022-10-08T23:12:31.479Z,73.80
2022-10-08T23:15:33.226Z,72.40
2022-10-08T23:18:39.906Z,72.80
2022-10-08T23:21:44.332Z,73.20
2022-10-08T23:24:46.598Z,72.70
2022-10-08T23:27:48.515Z,73.00
2022-10-08T23:30:53.520Z,70.90
2022-10-08T23:33:56.095Z,72.50
2022-10-08T23:36:58.133Z,72.60
2022-10-08T23:40:00.131Z,68.20
2022-10-08T23:43:02.188Z,66.10
2022-10-08T23:46:05.942Z,69.50
2022-10-08T23:49:07.981Z,63.90
2022-10-08T23:52:09.740Z,64.10
2022-10-08T23:55:11.899Z,60.70
2022-10-08T23:58:14.420Z,61.00
